Time;durP1;ratioP1;P1;durP2;ratioP2;P2;SDS_P1;SDS_P2;PMS_P1;PMS_P2;Temp;Humidity;BMP_temperature;BMP_pressure;BME280_temperature;BME280_humidity;BME280_pressure;Samples;Min_cycle;Max_cycle;Signal;HPM_P1;HPM_P2
2023/01/05 00:00:02;;;;;;;6.38;2.50;;;10.50;99.90;;;;;;5061814;28;20510;-74
2023/01/05 00:02:29;;;;;;;7.88;3.10;;;10.50;99.90;;;;;;5067617;28;20140;-73
2023/01/05 00:04:55;;;;;;;7.63;3.20;;;10.70;99.90;;;;;;5090498;28;20118;-73
2023/01/05 00:07:21;;;;;;;7.15;3.20;;;10.70;99.90;;;;;;5075000;28;20048;-73
2023/01/05 00:09:47;;;;;;;9.88;3.80;;;10.70;99.90;;;;;;5040367;28;20060;-72
2023/01/05 00:23:14;;;;;;;8.45;3.70;;;10.50;99.90;;;;;;5059012;28;20185;-72
2023/01/05 00:25:40;;;;;;;7.93;3.13;;;10.50;99.90;;;;;;5057961;28;20556;-73
2023/01/05 00:28:06;;;;;;;7.90;3.30;;;10.40;99.90;;;;;;5045448;28;20040;-72
2023/01/05 00:30:40;;;;;;;6.28;2.90;;;10.40;99.90;;;;;;5068294;28;20036;-73
2023/01/05 00:33:10;;;;;;;7.75;3.30;;;10.40;99.90;;;;;;5064939;28;20040;-72
2023/01/05 00:35:37;;;;;;;9.13;3.55;;;10.40;99.90;;;;;;5041673;28;20061;-73
2023/01/05 00:38:03;;;;;;;6.43;2.90;;;10.40;99.90;;;;;;5055000;28;20041;-73
2023/01/05 00:40:30;;;;;;;8.05;2.78;;;10.50;99.90;;;;;;5057632;28;20040;-73
2023/01/05 00:42:56;;;;;;;6.15;2.60;;;10.60;99.90;;;;;;5059297;28;20029;-73
2023/01/05 00:45:21;;;;;;;5.32;2.13;;;10.60;99.90;;;;;;5061359;28;20195;-73
2023/01/05 00:47:48;;;;;;;8.25;2.58;;;10.60;99.90;;;;;;5059648;28;20041;-73
2023/01/05 00:50:16;;;;;;;6.18;2.47;;;10.60;99.90;;;;;;5054589;28;20080;-73
2023/01/05 00:52:44;;;;;;;7.18;2.50;;;10.60;99.90;;;;;;5058858;28;20028;-73
2023/01/05 00:55:11;;;;;;;6.10;2.88;;;10.60;99.90;;;;;;5055042;28;20102;-73
2023/01/05 00:57:37;;;;;;;6.05;2.80;;;10.60;99.90;;;;;;5057569;28;20060;-73
2023/01/05 01:00:10;;;;;;;6.40;2.55;;;10.60;99.90;;;;;;5057931;28;20037;-73
2023/01/05 01:02:36;;;;;;;7.18;2.60;;;10.60;99.90;;;;;;5076485;28;20097;-74
2023/01/05 01:05:01;;;;;;;6.25;2.42;;;10.70;99.90;;;;;;5055420;28;20032;-73
2023/01/05 01:07:27;;;;;;;6.60;2.67;;;10.70;99.90;;;;;;5079737;28;20094;-74
2023/01/05 01:09:53;;;;;;;5.07;1.83;;;10.70;99.90;;;;;;5081888;28;20043;-73
2023/01/05 01:12:20;;;;;;;5.45;2.47;;;10.70;99.90;;;;;;5093562;28;20046;-72
2023/01/05 01:14:47;;;;;;;4.95;2.35;;;10.70;99.90;;;;;;5078469;28;20592;-72
2023/01/05 01:17:14;;;;;;;5.90;2.70;;;10.60;99.90;;;;;;5092093;28;20041;-73
2023/01/05 01:19:40;;;;;;;5.68;2.10;;;10.60;99.90;;;;;;5091636;28;20060;-72
2023/01/05 01:22:06;;;;;;;5.63;2.55;;;10.50;99.90;;;;;;5066296;28;20509;-72
2023/01/05 01:24:32;;;;;;;5.97;2.60;;;10.50;99.90;;;;;;5079477;28;20032;-74
2023/01/05 01:26:58;;;;;;;8.57;2.20;;;10.50;99.90;;;;;;5072276;28;20021;-74
2023/01/05 01:29:24;;;;;;;6.20;1.80;;;10.50;99.90;;;;;;5069120;28;20043;-73
2023/01/05 01:31:52;;;;;;;5.53;2.05;;;10.60;99.90;;;;;;5083626;28;20039;-73
2023/01/05 01:34:18;;;;;;;5.80;2.20;;;10.70;99.90;;;;;;5042817;28;20037;-72
2023/01/05 01:36:44;;;;;;;6.03;1.70;;;10.80;99.90;;;;;;5056974;28;20033;-73
2023/01/05 01:39:11;;;;;;;4.07;1.80;;;10.90;99.90;;;;;;5055297;28;20039;-73
2023/01/05 01:41:38;;;;;;;5.47;1.90;;;11.00;99.90;;;;;;5052139;28;20025;-73
2023/01/05 01:44:23;;;;;;;;;;;10.90;99.90;;;;;;5091312;28;20041;-73
2023/01/05 01:46:49;;;;;;;4.35;1.65;;;10.90;99.90;;;;;;5086620;28;20050;-73
2023/01/05 01:49:14;;;;;;;6.25;1.88;;;10.90;99.90;;;;;;5069314;28;20048;-73
2023/01/05 01:51:46;;;;;;;5.47;2.38;;;11.00;99.90;;;;;;5060957;28;20039;-72
2023/01/05 01:54:15;;;;;;;4.47;1.60;;;11.10;99.90;;;;;;5080066;28;20443;-73
2023/01/05 01:56:59;;;;;;;4.82;2.25;;;11.20;99.90;;;;;;5062598;28;20033;-73
2023/01/05 01:59:25;;;;;;;3.92;1.70;;;11.10;99.90;;;;;;5093182;28;20032;-73
2023/01/05 02:01:56;;;;;;;4.40;1.77;;;11.10;99.90;;;;;;5071831;28;20036;-72
2023/01/05 02:04:24;;;;;;;4.95;2.22;;;11.00;99.90;;;;;;5071148;28;20181;-73
2023/01/05 02:06:51;;;;;;;5.18;1.80;;;11.00;99.90;;;;;;5079247;28;20055;-73
2023/01/05 02:09:17;;;;;;;5.63;2.30;;;10.90;99.90;;;;;;5070495;28;20041;-72
2023/01/05 02:12:09;;;;;;;4.68;2.10;;;10.80;99.90;;;;;;5082116;28;20024;-73
2023/01/05 02:14:35;;;;;;;4.95;1.98;;;10.70;99.90;;;;;;5074068;28;20123;-74
2023/01/05 02:17:27;;;;;;;5.45;1.83;;;10.70;99.90;;;;;;5074809;28;20111;-74
2023/01/05 02:20:02;;;;;;;5.22;1.92;;;10.80;99.90;;;;;;5055992;28;20502;-73
2023/01/05 02:22:56;;;;;;;4.57;2.13;;;10.80;99.90;;;;;;5076542;28;20032;-73
2023/01/05 02:25:27;;;;;;;5.85;2.05;;;10.90;99.90;;;;;;5089474;27;20044;-73
2023/01/05 02:28:14;;;;;;;5.30;1.83;;;11.00;99.90;;;;;;5105120;27;20189;-73
2023/01/05 02:31:02;;;;;;;6.25;2.00;;;11.00;99.90;;;;;;5077887;28;20075;-73
2023/01/05 02:33:53;;;;;;;5.22;1.80;;;10.90;99.90;;;;;;5077032;28;20040;-73
2023/01/05 02:36:38;;;;;;;5.75;1.90;;;10.80;99.90;;;;;;5093706;28;20369;-73
2023/01/05 02:39:12;;;;;;;5.78;1.63;;;10.90;99.90;;;;;;5076949;28;20372;-73
2023/01/05 02:42:04;;;;;;;5.93;2.35;;;10.80;99.90;;;;;;5090828;28;20395;-73
2023/01/05 02:44:32;;;;;;;5.82;1.75;;;10.70;99.90;;;;;;5068671;28;20391;-73
2023/01/05 02:47:27;;;;;;;4.45;1.83;;;10.70;99.90;;;;;;5080496;28;20028;-73
2023/01/05 02:50:00;;;;;;;3.55;1.40;;;10.70;99.90;;;;;;5071372;28;20046;-73
2023/01/05 02:52:28;;;;;;;5.97;1.58;;;10.70;99.90;;;;;;5091411;28;20119;-73
2023/01/05 02:55:00;;;;;;;4.03;1.15;;;10.70;99.90;;;;;;5080853;28;20120;-73
2023/01/05 02:57:46;;;;;;;4.97;1.25;;;10.80;99.90;;;;;;5080225;28;20654;-73
2023/01/05 03:00:28;;;;;;;4.05;1.45;;;10.90;99.90;;;;;;5083154;28;20043;-73
2023/01/05 03:03:04;;;;;;;4.90;1.50;;;10.90;99.90;;;;;;5079615;28;20035;-73
2023/01/05 03:05:56;;;;;;;6.03;2.10;;;10.90;99.90;;;;;;5077546;28;20424;-74
2023/01/05 03:08:24;;;;;;;5.35;1.60;;;10.90;99.90;;;;;;5078134;28;20125;-73
2023/01/05 03:13:50;;;;;;;5.72;1.55;;;10.70;99.90;;;;;;5073414;28;20498;-73
2023/01/05 03:16:25;;;;;;;5.30;1.60;;;10.70;99.90;;;;;;5083206;28;20032;-73
2023/01/05 03:35:41;;;;;;;4.03;1.77;;;10.80;99.90;;;;;;5078120;28;20043;-72
2023/01/05 03:38:11;;;;;;;4.07;1.65;;;10.90;99.90;;;;;;5073307;28;20044;-74
2023/01/05 03:40:38;;;;;;;4.50;1.60;;;10.90;99.90;;;;;;5078382;28;20492;-74
2023/01/05 03:43:05;;;;;;;4.95;1.58;;;10.90;99.90;;;;;;5077329;28;20044;-74
2023/01/05 03:45:43;;;;;;;4.97;1.80;;;10.90;99.90;;;;;;5083005;28;20036;-73
2023/01/05 03:48:09;;;;;;;4.45;1.73;;;10.90;99.90;;;;;;5080156;28;20044;-73
2023/01/05 03:50:36;;;;;;;5.47;2.00;;;10.80;99.90;;;;;;5079867;28;20036;-73
2023/01/05 03:53:03;;;;;;;4.78;1.88;;;10.80;99.90;;;;;;5078085;28;20779;-73
2023/01/05 03:55:29;;;;;;;5.00;1.83;;;10.80;99.90;;;;;;5077031;28;20955;-73
2023/01/05 03:57:55;;;;;;;5.28;2.00;;;10.70;99.90;;;;;;5078249;28;20123;-74
2023/01/05 04:00:22;;;;;;;5.05;2.05;;;10.60;99.90;;;;;;5071598;28;20111;-73
2023/01/05 04:02:48;;;;;;;5.65;1.95;;;10.60;99.90;;;;;;5074006;28;20041;-73
2023/01/05 04:05:14;;;;;;;4.55;1.90;;;10.60;99.90;;;;;;5078434;28;20364;-73
2023/01/05 04:07:40;;;;;;;4.85;1.70;;;10.70;99.90;;;;;;5086170;28;20150;-72
2023/01/05 04:10:06;;;;;;;4.78;1.83;;;10.60;99.90;;;;;;5078579;28;20130;-74
2023/01/05 04:12:33;;;;;;;4.05;1.70;;;10.60;99.90;;;;;;5061751;28;20044;-72
2023/01/05 04:15:00;;;;;;;5.75;1.73;;;10.60;99.90;;;;;;5082605;28;20036;-72
2023/01/05 04:17:25;;;;;;;4.93;1.90;;;10.60;99.90;;;;;;5077040;28;20032;-72
2023/01/05 04:19:51;;;;;;;7.20;1.90;;;10.60;99.90;;;;;;5080888;28;20029;-73
2023/01/05 04:22:17;;;;;;;5.57;1.90;;;10.60;99.90;;;;;;5076560;28;20044;-73
2023/01/05 04:24:43;;;;;;;4.18;1.65;;;10.50;99.90;;;;;;5083317;28;20036;-74
2023/01/05 04:27:09;;;;;;;4.10;1.52;;;10.40;99.90;;;;;;5070170;28;20523;-73
2023/01/05 04:29:35;;;;;;;5.00;1.70;;;10.40;99.90;;;;;;5075459;28;20055;-73
2023/01/05 04:32:00;;;;;;;4.68;1.98;;;10.50;99.90;;;;;;5081580;28;20032;-74
2023/01/05 04:34:27;;;;;;;3.53;1.15;;;10.40;99.90;;;;;;5077510;28;20669;-74
2023/01/05 04:36:53;;;;;;;4.10;1.42;;;10.40;99.90;;;;;;5073878;28;20131;-74
2023/01/05 04:39:19;;;;;;;4.45;1.70;;;10.40;99.90;;;;;;5074788;28;20120;-74
2023/01/05 04:41:47;;;;;;;3.85;1.45;;;10.40;99.90;;;;;;5093617;28;20025;-73
2023/01/05 04:44:13;;;;;;;3.75;1.15;;;10.40;99.90;;;;;;5082827;28;20056;-72
2023/01/05 04:46:41;;;;;;;5.20;1.55;;;10.40;99.90;;;;;;5094028;28;20028;-73
2023/01/05 04:49:09;;;;;;;6.07;1.85;;;10.50;99.90;;;;;;5064026;28;20051;-73
2023/01/05 04:51:36;;;;;;;4.32;1.40;;;10.50;99.90;;;;;;5096244;27;20138;-73
2023/01/05 04:54:02;;;;;;;4.28;1.42;;;10.50;99.90;;;;;;5097596;28;20048;-73
2023/01/05 04:56:27;;;;;;;3.53;1.38;;;10.50;99.90;;;;;;5078727;27;20028;-73
2023/01/05 04:58:54;;;;;;;4.15;1.42;;;10.50;99.90;;;;;;5083400;27;21092;-73
2023/01/05 05:01:19;;;;;;;4.55;1.50;;;10.50;99.90;;;;;;5069939;28;20033;-73
2023/01/05 05:03:45;;;;;;;3.85;1.52;;;10.50;99.90;;;;;;5044170;28;20028;-73
2023/01/05 05:06:11;;;;;;;4.13;1.35;;;10.50;99.90;;;;;;5057992;28;20028;-74
2023/01/05 05:08:37;;;;;;;4.32;1.50;;;10.60;99.90;;;;;;5059329;28;20033;-74
2023/01/05 05:11:04;;;;;;;4.55;1.67;;;10.60;99.90;;;;;;5060541;28;20066;-73
2023/01/05 05:13:30;;;;;;;4.60;1.92;;;10.60;99.90;;;;;;5061571;28;20048;-74
2023/01/05 05:15:56;;;;;;;4.95;1.80;;;10.70;99.90;;;;;;5064651;28;20036;-72
2023/01/05 05:18:23;;;;;;;6.50;1.88;;;10.70;99.90;;;;;;5057878;28;20044;-73
2023/01/05 05:20:52;;;;;;;4.50;2.00;;;10.70;99.90;;;;;;5059179;28;20053;-74
2023/01/05 05:23:18;;;;;;;6.80;2.30;;;10.80;99.90;;;;;;5059455;28;20037;-73
2023/01/05 05:25:44;;;;;;;4.93;1.75;;;10.80;99.90;;;;;;5057468;28;20044;-73
2023/01/05 05:28:10;;;;;;;4.53;1.90;;;10.90;99.90;;;;;;5087644;28;20068;-73
2023/01/05 05:30:39;;;;;;;5.13;2.00;;;11.00;99.90;;;;;;5047431;28;20179;-73
2023/01/05 05:33:05;;;;;;;5.20;2.30;;;11.10;99.90;;;;;;5062452;28;20067;-72
2023/01/05 05:35:32;;;;;;;6.03;2.17;;;11.10;99.90;;;;;;5072591;28;20040;-74
2023/01/05 05:37:58;;;;;;;4.25;1.80;;;11.10;99.90;;;;;;5058549;28;20126;-73
2023/01/05 05:40:25;;;;;;;5.07;2.05;;;11.20;99.90;;;;;;5053456;28;20509;-73
2023/01/05 05:42:50;;;;;;;;;;;11.20;99.90;;;;;;5061605;28;20035;-73
2023/01/05 05:45:16;;;;;;;5.65;2.05;;;11.20;99.90;;;;;;5091939;28;20910;-72
2023/01/05 05:47:43;;;;;;;6.57;1.75;;;11.30;99.90;;;;;;5060897;28;20036;-74
2023/01/05 05:50:09;;;;;;;4.47;2.05;;;11.20;99.90;;;;;;5055041;28;20120;-73
2023/01/05 05:52:35;;;;;;;5.53;2.17;;;11.20;99.90;;;;;;5055885;28;20048;-74
2023/01/05 05:55:00;;;;;;;6.13;1.85;;;11.30;99.90;;;;;;5057971;28;20045;-73
2023/01/05 05:57:26;;;;;;;4.97;1.60;;;11.30;99.90;;;;;;5062132;28;20059;-73
2023/01/05 05:59:52;;;;;;;5.15;1.77;;;11.30;99.90;;;;;;5061169;28;20036;-73
2023/01/05 06:02:18;;;;;;;4.63;1.90;;;11.30;99.90;;;;;;5066806;28;20098;-72
2023/01/05 06:04:44;;;;;;;4.80;1.85;;;11.40;99.90;;;;;;5061627;28;20060;-73
2023/01/05 06:07:11;;;;;;;4.28;1.63;;;11.30;99.90;;;;;;5061153;28;20127;-73
2023/01/05 06:09:37;;;;;;;8.80;1.95;;;11.20;99.90;;;;;;5063814;28;20040;-73
2023/01/05 06:12:03;;;;;;;6.30;1.85;;;11.20;99.90;;;;;;5061923;28;20048;-73
2023/01/05 06:14:28;;;;;;;4.55;1.65;;;11.00;99.90;;;;;;5064488;28;20124;-73
2023/01/05 06:16:54;;;;;;;4.30;1.60;;;11.00;99.90;;;;;;5060118;28;20041;-74
2023/01/05 06:19:20;;;;;;;4.88;1.58;;;11.20;99.90;;;;;;5062179;28;20033;-73
2023/01/05 06:21:46;;;;;;;4.38;1.63;;;11.20;99.90;;;;;;5048565;28;20057;-73
2023/01/05 06:24:11;;;;;;;5.50;1.70;;;11.20;99.90;;;;;;5060030;28;20388;-73
2023/01/05 06:26:37;;;;;;;3.95;1.50;;;11.10;99.90;;;;;;5063993;28;20123;-74
2023/01/05 06:29:03;;;;;;;5.57;1.88;;;11.10;99.90;;;;;;5061474;28;20555;-73
2023/01/05 06:31:29;;;;;;;6.32;1.80;;;11.10;99.90;;;;;;5065275;28;20051;-72
2023/01/05 06:33:55;;;;;;;9.77;1.80;;;11.10;99.90;;;;;;5067198;28;20021;-74
2023/01/05 06:36:21;;;;;;;4.60;1.85;;;11.00;99.90;;;;;;5064513;28;20101;-73
2023/01/05 06:38:47;;;;;;;3.78;1.73;;;10.90;99.90;;;;;;5065239;28;20143;-73
2023/01/05 06:41:14;;;;;;;4.35;1.73;;;10.80;99.90;;;;;;5059831;28;20021;-73
2023/01/05 06:43:39;;;;;;;6.10;2.60;;;10.90;99.90;;;;;;5079703;28;20379;-74
2023/01/05 06:46:05;;;;;;;5.82;2.53;;;10.70;99.90;;;;;;5061721;28;20120;-73
2023/01/05 06:48:31;;;;;;;7.00;3.20;;;10.70;99.90;;;;;;5063121;28;20496;-73
2023/01/05 06:50:57;;;;;;;5.20;2.50;;;10.60;99.90;;;;;;5073618;28;20520;-73
2023/01/05 06:53:23;;;;;;;8.13;3.05;;;10.60;99.90;;;;;;5057925;28;20464;-74
2023/01/05 06:55:48;;;;;;;5.85;2.65;;;10.50;99.90;;;;;;5068834;28;20079;-74
2023/01/05 06:58:14;;;;;;;5.85;2.42;;;10.30;99.90;;;;;;5060051;28;20471;-73
2023/01/05 07:00:40;;;;;;;6.25;2.15;;;10.40;99.90;;;;;;5061475;28;20044;-72
2023/01/05 07:03:07;;;;;;;7.60;2.42;;;10.40;99.90;;;;;;5064446;28;20039;-73
2023/01/05 07:05:32;;;;;;;5.13;2.22;;;10.40;99.90;;;;;;5059964;28;20029;-73
2023/01/05 07:07:58;;;;;;;7.32;2.33;;;10.40;99.90;;;;;;5066397;28;20037;-73
2023/01/05 07:10:24;;;;;;;5.07;2.20;;;10.40;99.90;;;;;;5059731;28;20036;-73
2023/01/05 07:12:51;;;;;;;8.98;2.70;;;10.40;99.90;;;;;;5063772;28;20088;-74
2023/01/05 07:15:17;;;;;;;6.68;3.15;;;10.30;99.90;;;;;;5060283;28;20124;-73
2023/01/05 07:17:43;;;;;;;9.68;3.45;;;10.20;99.90;;;;;;5058071;28;20575;-74
2023/01/05 07:20:09;;;;;;;8.63;3.50;;;10.10;99.90;;;;;;5057364;28;20060;-74
2023/01/05 07:22:35;;;;;;;8.75;3.38;;;10.20;99.90;;;;;;5065275;28;20028;-73
2023/01/05 07:25:01;;;;;;;7.10;3.55;;;10.10;99.90;;;;;;5063096;28;20036;-74
2023/01/05 07:27:26;;;;;;;10.10;3.72;;;10.20;99.90;;;;;;5059885;28;20081;-73
2023/01/05 07:29:52;;;;;;;6.57;3.13;;;10.10;99.90;;;;;;5063148;28;20033;-74
2023/01/05 07:32:18;;;;;;;9.32;3.47;;;10.00;99.90;;;;;;5047959;28;20134;-75
2023/01/05 07:34:44;;;;;;;9.25;3.83;;;10.00;99.90;;;;;;5062194;28;20041;-74
2023/01/05 07:37:10;;;;;;;10.27;3.53;;;10.00;99.90;;;;;;5059817;28;20040;-73
2023/01/05 07:39:36;;;;;;;8.60;3.58;;;10.00;99.90;;;;;;5062887;28;20032;-73
2023/01/05 07:42:01;;;;;;;9.20;3.53;;;10.00;99.90;;;;;;5067069;28;20036;-74
2023/01/05 07:44:27;;;;;;;9.40;3.90;;;10.00;99.90;;;;;;5085589;28;20092;-74
2023/01/05 07:46:53;;;;;;;10.23;4.18;;;9.90;99.90;;;;;;5083436;28;20373;-74
2023/01/05 07:49:19;;;;;;;9.75;4.03;;;9.90;99.90;;;;;;5082060;28;20049;-73
2023/01/05 07:51:45;;;;;;;10.93;4.53;;;9.90;99.90;;;;;;5076471;28;20059;-74
2023/01/05 07:54:11;;;;;;;12.73;4.38;;;10.00;99.90;;;;;;5078900;28;20032;-73
2023/01/05 07:56:36;;;;;;;11.95;4.28;;;10.10;99.90;;;;;;5078760;28;20032;-75
2023/01/05 07:59:02;;;;;;;10.73;4.30;;;10.10;99.90;;;;;;5081145;28;20039;-76
2023/01/05 08:01:28;;;;;;;16.13;5.05;;;10.20;99.90;;;;;;5089914;28;20032;-76
2023/01/05 08:03:54;;;;;;;10.80;4.47;;;10.30;99.90;;;;;;5089302;28;20166;-76
2023/01/05 08:06:20;;;;;;;8.77;4.88;;;10.40;99.90;;;;;;5075668;28;20048;-75
2023/01/05 08:08:47;;;;;;;8.32;4.80;;;10.50;99.90;;;;;;5098684;27;20586;-75
2023/01/05 08:11:15;;;;;;;12.10;4.95;;;10.60;99.90;;;;;;5051394;28;20049;-76
2023/01/05 08:16:28;;;;;;;12.25;5.30;;;10.60;99.90;;;;;;5080541;28;20240;-75
2023/01/05 08:18:55;;;;;;;9.65;3.50;;;10.60;99.90;;;;;;5066695;28;20053;-76
2023/01/05 08:21:23;;;;;;;7.82;4.07;;;10.70;99.90;;;;;;5102432;28;20100;-76
2023/01/05 08:23:58;;;;;;;8.77;3.63;;;11.10;99.90;;;;;;5089124;28;20085;-76
2023/01/05 08:26:23;;;;;;;8.57;4.22;;;11.80;99.90;;;;;;5086973;28;20036;-76
2023/01/05 08:28:50;;;;;;;11.40;4.05;;;11.60;99.90;;;;;;5083074;28;20566;-75
2023/01/05 08:31:25;;;;;;;8.02;3.40;;;12.10;99.90;;;;;;5089086;28;20028;-75
2023/01/05 08:33:56;;;;;;;9.93;4.18;;;14.10;99.90;;;;;;5084017;28;20170;-76
2023/01/05 08:36:22;;;;;;;40.10;19.52;;;15.50;99.20;;;;;;5081934;28;20059;-76
2023/01/05 08:38:51;;;;;;;11.70;5.38;;;16.30;98.90;;;;;;5085399;28;20132;-75
2023/01/05 08:41:18;;;;;;;10.15;5.40;;;17.00;98.30;;;;;;5066924;28;20043;-76
2023/01/05 08:43:48;;;;;;;;;;;17.90;97.30;;;;;;5075678;28;20115;-76
2023/01/05 08:46:13;;;;;;;12.88;5.90;;;18.50;96.30;;;;;;5071773;28;20412;-76
2023/01/05 08:48:39;;;;;;;12.98;6.18;;;19.00;95.70;;;;;;5082816;28;20040;-76
2023/01/05 08:51:06;;;;;;;13.63;6.47;;;18.70;95.80;;;;;;5096957;28;20086;-76
2023/01/05 08:53:34;;;;;;;;;;;18.50;95.70;;;;;;5089932;28;20053;-76
2023/01/05 08:56:01;;;;;;;16.33;5.90;;;18.60;95.20;;;;;;5075435;28;19920;-76
2023/01/05 08:58:27;;;;;;;;;;;17.70;95.80;;;;;;5052680;28;20040;-76
2023/01/05 09:00:53;;;;;;;11.05;5.65;;;16.70;96.00;;;;;;5067535;28;19912;-76
2023/01/05 09:03:19;;;;;;;12.63;5.95;;;16.20;96.40;;;;;;5088285;28;20132;-77
2023/01/05 09:05:45;;;;;;;12.13;6.32;;;15.70;97.10;;;;;;5079796;28;20036;-76
2023/01/05 09:08:11;;;;;;;11.80;4.60;;;14.90;97.60;;;;;;5086298;28;20126;-75
2023/01/05 09:10:41;;;;;;;12.23;4.72;;;14.40;98.20;;;;;;5082931;28;20107;-76
2023/01/05 09:13:07;;;;;;;7.55;4.10;;;14.30;98.70;;;;;;5086765;28;20456;-77
2023/01/05 09:15:34;;;;;;;9.13;4.63;;;14.10;98.20;;;;;;5083142;28;20125;-77
2023/01/05 09:18:01;;;;;;;11.50;4.95;;;14.00;98.70;;;;;;5084957;28;20024;-77
2023/01/05 09:20:27;;;;;;;12.52;5.07;;;14.10;98.80;;;;;;5073023;28;20033;-75
2023/01/05 09:22:54;;;;;;;11.05;5.40;;;14.30;98.90;;;;;;5077936;28;20059;-75
2023/01/05 09:25:20;;;;;;;13.30;5.43;;;14.20;99.40;;;;;;5081969;28;20114;-77
2023/01/05 09:27:46;;;;;;;12.57;5.45;;;14.10;99.00;;;;;;5075887;28;20036;-76
2023/01/05 09:30:14;;;;;;;13.65;6.22;;;14.40;99.10;;;;;;5082688;28;20372;-75
2023/01/05 09:32:40;;;;;;;15.27;7.25;;;14.50;98.80;;;;;;5082630;28;20032;-75
2023/01/05 09:35:06;;;;;;;13.93;6.53;;;14.80;98.40;;;;;;5078286;28;20043;-76
2023/01/05 09:37:32;;;;;;;13.30;5.60;;;15.10;98.10;;;;;;5073420;28;20036;-76
2023/01/05 09:39:58;;;;;;;10.45;5.40;;;15.30;97.40;;;;;;5079714;28;20051;-75
2023/01/05 09:42:29;;;;;;;10.27;6.53;;;15.60;97.20;;;;;;5079282;28;20132;-76
2023/01/05 09:45:04;;;;;;;10.98;5.80;;;16.10;96.50;;;;;;5081656;28;20065;-75
2023/01/05 09:47:44;;;;;;;9.57;4.85;;;15.90;97.00;;;;;;5080135;28;20074;-76
2023/01/05 09:50:25;;;;;;;8.52;3.53;;;16.00;96.30;;;;;;5065294;28;20036;-76
2023/01/05 09:52:56;;;;;;;9.52;4.53;;;16.20;95.90;;;;;;5062957;28;20036;-75
2023/01/05 09:55:24;;;;;;;14.00;6.65;;;16.60;95.50;;;;;;5071400;28;21003;-76
2023/01/05 09:57:57;;;;;;;9.35;5.13;;;16.50;95.50;;;;;;5062818;28;20036;-76
2023/01/05 10:00:25;;;;;;;9.52;4.75;;;16.80;95.40;;;;;;5094075;28;20433;-75
2023/01/05 10:03:12;;;;;;;12.98;6.05;;;17.20;95.20;;;;;;5063961;28;20037;-75
2023/01/05 10:05:41;;;;;;;10.27;5.28;;;17.50;95.00;;;;;;5076272;28;20025;-76
2023/01/05 10:08:26;;;;;;;9.48;5.32;;;17.60;94.60;;;;;;5070279;28;20037;-75
2023/01/05 10:14:11;;;;;;;12.57;5.60;;;17.80;94.30;;;;;;5078336;28;20118;-75
2023/01/05 10:16:42;;;;;;;11.05;6.30;;;17.60;94.40;;;;;;5077824;28;20040;-77
2023/01/05 10:19:19;;;;;;;10.63;6.72;;;18.00;94.60;;;;;;5082447;28;20036;-78
2023/01/05 10:21:57;;;;;;;13.80;6.70;;;18.00;94.20;;;;;;5080983;28;20116;-76
2023/01/05 10:24:41;;;;;;;12.27;7.45;;;18.20;94.20;;;;;;5097883;28;20035;-76
2023/01/05 10:27:37;;;;;;;11.20;6.47;;;18.30;93.90;;;;;;5074702;28;20120;-76
2023/01/05 10:30:10;;;;;;;16.33;8.82;;;18.00;94.10;;;;;;5075404;28;20032;-77
2023/01/05 10:33:02;;;;;;;16.38;10.05;;;18.30;94.50;;;;;;5094819;28;20029;-77
2023/01/05 10:36:05;;;;;;;18.27;9.35;;;18.10;94.00;;;;;;5082100;28;20040;-75
2023/01/05 10:38:43;;;;;;;;;;;18.50;94.40;;;;;;5076901;28;20039;-79
2023/01/05 10:41:35;;;;;;;17.55;8.63;;;18.40;93.90;;;;;;5118425;28;19915;-76
2023/01/05 10:44:20;;;;;;;12.02;7.68;;;19.00;93.60;;;;;;5102413;28;20032;-76
2023/01/05 10:46:48;;;;;;;10.07;6.63;;;19.10;92.80;;;;;;5087385;28;20044;-77
2023/01/05 10:49:30;;;;;;;9.88;5.82;;;19.00;92.90;;;;;;5096095;27;20102;-77
2023/01/05 10:51:58;;;;;;;10.30;5.50;;;19.10;93.10;;;;;;5090064;28;20368;-77
2023/01/05 10:54:38;;;;;;;11.80;5.30;;;19.00;92.20;;;;;;5095524;28;20036;-77
2023/01/05 10:57:33;;;;;;;11.43;6.80;;;19.50;92.60;;;;;;5088197;28;20111;-77
2023/01/05 11:00:01;;;;;;;13.55;7.10;;;19.90;92.20;;;;;;5088854;28;20036;-76
2023/01/05 11:02:56;;;;;;;13.10;6.80;;;20.00;92.20;;;;;;5090075;28;20598;-77
2023/01/05 11:05:35;;;;;;;17.50;8.38;;;20.50;91.80;;;;;;5088384;28;20043;-77
2023/01/05 11:08:07;;;;;;;18.85;10.18;;;21.10;91.60;;;;;;5091280;28;20380;-76
2023/01/05 11:10:51;;;;;;;21.80;10.25;;;21.40;91.20;;;;;;5077379;28;20425;-76
2023/01/05 11:13:36;;;;;;;15.88;9.40;;;21.90;91.10;;;;;;5085346;28;20144;-76
2023/01/05 11:16:11;;;;;;;15.63;8.20;;;21.80;90.50;;;;;;5093592;28;20035;-76
2023/01/05 11:18:51;;;;;;;8.63;5.95;;;21.30;90.60;;;;;;5090884;28;20036;-76
2023/01/05 11:21:27;;;;;;;13.90;7.80;;;21.40;90.50;;;;;;5088860;28;20032;-77
2023/01/05 11:23:58;;;;;;;14.55;8.20;;;21.60;90.60;;;;;;5106575;27;20037;-76
2023/01/05 11:26:33;;;;;;;17.15;9.32;;;21.90;90.30;;;;;;5088271;28;20036;-76
2023/01/05 11:29:04;;;;;;;14.65;8.82;;;22.00;90.20;;;;;;5088400;28;20037;-76
2023/01/05 11:31:41;;;;;;;15.27;8.70;;;22.30;90.10;;;;;;5101282;28;20041;-75
2023/01/05 11:34:36;;;;;;;14.13;8.98;;;22.20;90.10;;;;;;5108648;28;20398;-76
2023/01/05 11:37:25;;;;;;;11.65;7.18;;;22.70;89.40;;;;;;5106608;28;20038;-78
2023/01/05 11:39:57;;;;;;;14.13;7.13;;;23.10;88.30;;;;;;5086586;28;20035;-77
2023/01/05 11:42:23;;;;;;;13.07;7.75;;;23.30;87.40;;;;;;5087844;28;20115;-76
2023/01/05 11:44:59;;;;;;;19.77;9.95;;;23.50;88.10;;;;;;5083008;28;20114;-76
2023/01/05 11:47:31;;;;;;;19.20;10.18;;;23.30;87.60;;;;;;5069413;28;20024;-76
2023/01/05 11:50:21;;;;;;;17.25;9.13;;;22.90;87.60;;;;;;5090925;28;20108;-76
2023/01/05 11:52:49;;;;;;;8.18;3.72;;;23.50;87.80;;;;;;5073737;28;20040;-76
2023/01/05 11:55:19;;;;;;;7.55;3.25;;;21.50;86.20;;;;;;5084946;28;20043;-76
2023/01/05 11:57:46;;;;;;;5.15;2.55;;;22.00;87.50;;;;;;5098465;28;20021;-76
2023/01/05 12:00:43;;;;;;;7.32;2.42;;;22.00;86.20;;;;;;5080720;28;20036;-77
2023/01/05 12:03:20;;;;;;;4.35;2.15;;;21.80;86.50;;;;;;5072948;28;20040;-76
2023/01/05 12:05:54;;;;;;;5.70;2.53;;;23.20;85.60;;;;;;5104740;28;20040;-76
2023/01/05 12:08:30;;;;;;;8.32;3.15;;;23.10;85.00;;;;;;5066508;28;20484;-76
2023/01/05 12:11:15;;;;;;;6.07;2.47;;;22.70;83.90;;;;;;5088581;28;20032;-76
2023/01/05 12:13:52;;;;;;;4.82;2.55;;;23.20;84.40;;;;;;5050620;28;20032;-77
2023/01/05 12:16:33;;;;;;;6.03;3.08;;;23.30;83.80;;;;;;5072344;28;20111;-76
2023/01/05 12:19:09;;;;;;;6.18;2.25;;;23.50;83.90;;;;;;5084166;28;20031;-76
2023/01/05 12:22:05;;;;;;;4.50;2.60;;;23.30;83.00;;;;;;5073817;28;20040;-77
2023/01/05 12:24:42;;;;;;;6.57;2.10;;;22.00;84.30;;;;;;5064385;28;20059;-77
2023/01/05 12:27:41;;;;;;;3.85;1.88;;;22.10;84.50;;;;;;5079821;28;20134;-76
2023/01/05 12:30:19;;;;;;;5.28;2.17;;;21.90;84.20;;;;;;5088340;28;20526;-77
2023/01/05 12:32:57;;;;;;;4.60;1.80;;;22.00;84.10;;;;;;5100488;28;20033;-77
2023/01/05 12:35:53;;;;;;;4.57;1.75;;;21.40;83.20;;;;;;5082903;28;20044;-76
2023/01/05 12:38:51;;;;;;;4.32;1.63;;;21.60;83.00;;;;;;5100439;27;20135;-76
2023/01/05 12:41:50;;;;;;;4.68;1.73;;;22.30;82.10;;;;;;5081495;28;20613;-76
2023/01/05 12:44:38;;;;;;;5.85;1.65;;;23.80;81.30;;;;;;5084435;28;20028;-76
2023/01/05 12:47:38;;;;;;;3.30;1.42;;;23.80;80.30;;;;;;5104922;28;20036;-77
2023/01/05 12:50:25;;;;;;;4.22;1.83;;;23.80;79.40;;;;;;5085430;28;20036;-77
2023/01/05 12:53:07;;;;;;;4.05;1.42;;;23.80;79.20;;;;;;5088642;28;20091;-73
2023/01/05 12:55:52;;;;;;;3.90;1.75;;;22.40;77.80;;;;;;5075426;28;20383;-74
2023/01/05 12:58:33;;;;;;;3.15;1.77;;;22.00;77.90;;;;;;5078254;28;20041;-76
2023/01/05 13:01:03;;;;;;;4.95;1.77;;;22.00;78.60;;;;;;5081008;28;20035;-74
2023/01/05 13:03:51;;;;;;;4.38;1.50;;;22.80;78.00;;;;;;5073817;28;20036;-74
2023/01/05 13:06:21;;;;;;;3.72;1.67;;;22.40;77.90;;;;;;5079002;28;20060;-74
2023/01/05 13:08:57;;;;;;;3.95;1.88;;;22.70;77.60;;;;;;5080144;28;20742;-76
2023/01/05 13:11:42;;;;;;;4.40;2.15;;;23.10;77.50;;;;;;5037602;28;20545;-75
2023/01/05 13:14:16;;;;;;;4.78;1.63;;;22.40;78.10;;;;;;5068785;28;20041;-74
2023/01/05 13:16:49;;;;;;;4.18;1.67;;;22.00;78.40;;;;;;5090765;28;20028;-73
2023/01/05 13:19:43;;;;;;;3.53;1.60;;;23.00;76.80;;;;;;5085766;28;20032;-72
2023/01/05 13:22:22;;;;;;;3.65;1.75;;;23.40;77.80;;;;;;5077908;28;20062;-73
2023/01/05 13:24:57;;;;;;;5.45;2.05;;;23.10;76.70;;;;;;5079933;28;20891;-75
2023/01/05 13:27:25;;;;;;;5.38;1.80;;;24.40;76.00;;;;;;5078661;28;20036;-75
2023/01/05 13:29:58;;;;;;;4.43;1.80;;;23.20;75.90;;;;;;5075222;28;20118;-74
2023/01/05 13:33:03;;;;;;;4.07;1.73;;;23.00;76.70;;;;;;5079422;28;20039;-74
2023/01/05 13:35:43;;;;;;;4.25;1.90;;;22.60;76.00;;;;;;5067918;28;20523;-74
2023/01/05 13:38:17;;;;;;;3.80;1.80;;;23.00;74.70;;;;;;5079609;28;20040;-75
2023/01/05 13:40:59;;;;;;;4.47;1.60;;;23.40;75.50;;;;;;5080676;28;20031;-74
2023/01/05 13:43:43;;;;;;;4.07;1.50;;;23.30;73.00;;;;;;5080909;28;20039;-74